Time;durP1;ratioP1;P1;durP2;ratioP2;P2;SDS_P1;SDS_P2;PMS_P1;PMS_P2;Temp;Humidity;BMP_temperature;BMP_pressure;BME280_temperature;BME280_humidity;BME280_pressure;Samples;Min_cycle;Max_cycle;Signal;HPM_P1;HPM_P2
2023/01/19 08:12:17;;;;;;;14.27;8.50;;;-2.80;99.90;;;;;;5135970;27;20268;-79
2023/01/19 08:16:35;;;;;;;19.93;9.23;;;-2.70;99.90;;;;;;5135542;27;20282;-81
2023/01/19 08:20:34;;;;;;;9.97;6.13;;;-2.60;99.90;;;;;;5136116;27;20760;-81
2023/01/19 08:24:34;;;;;;;10.53;7.60;;;-2.60;99.90;;;;;;5150219;27;20275;-81
2023/01/19 08:28:31;;;;;;;13.67;8.30;;;-2.30;99.90;;;;;;5144557;27;20272;-81
2023/01/19 08:30:58;;;;;;;11.30;7.20;;;-2.30;99.90;;;;;;5155243;27;20416;-79
2023/01/19 08:33:24;;;;;;;12.07;6.83;;;-2.30;99.90;;;;;;5154358;28;20187;-81
2023/01/19 08:35:52;;;;;;;10.23;5.03;;;-2.10;99.90;;;;;;5143489;27;20466;-81
2023/01/19 08:38:17;;;;;;;12.33;8.03;;;-2.00;99.90;;;;;;5138447;28;20417;-80
2023/01/19 08:40:44;;;;;;;11.10;6.73;;;-1.90;99.90;;;;;;5135583;28;20444;-81
2023/01/19 08:43:13;;;;;;;10.13;6.80;;;-1.80;99.90;;;;;;5137162;27;20507;-81
2023/01/19 08:45:45;;;;;;;9.80;6.87;;;-1.10;99.90;;;;;;5138575;27;20469;-81
2023/01/19 08:48:12;;;;;;;14.87;7.63;;;-1.60;99.90;;;;;;5137411;28;20452;-81
2023/01/19 08:50:38;;;;;;;9.77;6.87;;;-1.30;99.90;;;;;;5137170;27;20438;-80
2023/01/19 08:53:08;;;;;;;13.47;7.03;;;-1.10;99.90;;;;;;5137273;27;20409;-81
2023/01/19 08:55:35;;;;;;;11.30;7.43;;;-0.90;99.90;;;;;;5136186;28;20409;-80
2023/01/19 08:58:06;;;;;;;9.10;6.93;;;-0.50;99.90;;;;;;5137064;28;20207;-81
2023/01/19 09:00:33;;;;;;;9.93;7.10;;;-0.40;99.90;;;;;;5136349;28;20459;-82
2023/01/19 09:03:03;;;;;;;9.97;7.07;;;0.10;99.90;;;;;;5137715;28;20184;-82
2023/01/19 09:05:37;;;;;;;10.70;6.77;;;0.30;99.90;;;;;;5143247;27;20167;-82
2023/01/19 09:08:12;;;;;;;9.73;6.60;;;0.40;99.90;;;;;;5136225;28;20203;-82
2023/01/19 09:10:42;;;;;;;12.30;6.87;;;0.50;99.90;;;;;;5136246;28;20195;-82
2023/01/19 09:13:10;;;;;;;10.70;7.17;;;0.50;99.90;;;;;;5137269;27;20175;-82
2023/01/19 09:15:40;;;;;;;10.20;6.33;;;0.70;99.90;;;;;;5135699;28;20210;-81
2023/01/19 09:18:11;;;;;;;8.20;6.30;;;0.70;99.90;;;;;;5136045;28;20185;-82
2023/01/19 09:20:37;;;;;;;11.10;6.57;;;1.00;99.90;;;;;;5135972;28;20201;-82
2023/01/19 09:23:04;;;;;;;9.00;6.40;;;1.00;99.90;;;;;;5135127;28;20230;-82
2023/01/19 09:25:30;;;;;;;7.97;6.03;;;1.10;99.90;;;;;;5136026;27;20519;-82
2023/01/19 09:27:58;;;;;;;10.30;6.93;;;0.90;99.90;;;;;;5136469;27;20210;-81
2023/01/19 09:30:24;;;;;;;7.47;5.83;;;1.20;99.90;;;;;;5139897;27;20224;-81
2023/01/19 09:32:50;;;;;;;7.63;6.23;;;1.30;99.90;;;;;;5140468;27;20179;-80
2023/01/19 09:35:15;;;;;;;6.87;5.50;;;1.20;99.90;;;;;;5135026;27;20540;-81
2023/01/19 09:37:46;;;;;;;8.90;5.63;;;1.20;99.90;;;;;;5133991;27;20231;-81
2023/01/19 09:40:12;;;;;;;6.57;5.37;;;1.10;99.90;;;;;;5120866;28;20188;-80
2023/01/19 09:42:44;;;;;;;10.27;6.50;;;0.90;99.90;;;;;;5119935;28;20168;-80
2023/01/19 09:45:18;;;;;;;13.40;8.60;;;0.80;99.90;;;;;;5118146;28;20176;-81
2023/01/19 09:47:45;;;;;;;15.23;8.50;;;1.40;99.90;;;;;;5120155;28;20210;-81
2023/01/19 09:50:26;;;;;;;8.07;6.30;;;1.70;99.90;;;;;;5120260;27;20195;-81
2023/01/19 09:53:04;;;;;;;5.53;4.33;;;1.80;99.90;;;;;;5120128;28;20545;-80
2023/01/19 09:55:30;;;;;;;8.73;5.20;;;1.60;99.90;;;;;;5121727;28;20247;-82
2023/01/19 09:57:55;;;;;;;5.83;4.83;;;1.80;99.90;;;;;;5121544;28;20551;-82
2023/01/19 10:00:23;;;;;;;7.23;4.90;;;1.30;99.90;;;;;;5123146;28;20200;-78
2023/01/19 10:02:57;;;;;;;7.73;4.87;;;0.70;99.90;;;;;;5122087;28;20229;-81
2023/01/19 10:05:29;;;;;;;6.90;5.40;;;0.50;99.90;;;;;;5122134;28;20171;-81
2023/01/19 10:08:04;;;;;;;5.03;4.47;;;0.70;99.90;;;;;;5123092;28;20221;-81
2023/01/19 10:10:31;;;;;;;5.63;4.90;;;0.70;99.90;;;;;;5121315;28;20206;-80
2023/01/19 10:13:09;;;;;;;6.87;4.90;;;0.60;99.90;;;;;;5122360;28;20567;-81
2023/01/19 10:15:56;;;;;;;8.57;5.77;;;0.40;99.90;;;;;;5120261;28;20220;-81
2023/01/19 10:18:29;;;;;;;5.77;4.63;;;0.60;99.90;;;;;;5122111;28;20209;-80
2023/01/19 10:21:27;;;;;;;6.60;5.07;;;1.00;99.90;;;;;;5119983;28;20200;-81
2023/01/19 10:23:56;;;;;;;7.83;4.83;;;1.60;99.90;;;;;;5119642;28;20176;-79
2023/01/19 10:26:23;;;;;;;5.73;4.67;;;1.70;99.90;;;;;;5119503;28;20175;-80
2023/01/19 10:28:53;;;;;;;7.07;4.83;;;1.30;99.90;;;;;;5119996;28;20620;-81
2023/01/19 10:31:22;;;;;;;6.07;4.73;;;1.50;99.90;;;;;;5119952;28;20246;-80
2023/01/19 10:33:51;;;;;;;7.80;6.00;;;2.10;99.90;;;;;;5122256;28;20229;-80
2023/01/19 10:36:33;;;;;;;8.83;6.43;;;2.30;99.90;;;;;;5120882;28;20517;-82
2023/01/19 10:38:58;;;;;;;4.73;4.30;;;2.40;99.90;;;;;;5119942;28;20571;-82
2023/01/19 10:41:43;;;;;;;5.07;3.67;;;2.10;99.90;;;;;;5122488;28;20221;-82
2023/01/19 10:44:10;;;;;;;4.63;4.10;;;1.80;99.90;;;;;;5120498;28;20652;-80
2023/01/19 10:46:44;;;;;;;4.47;4.07;;;1.60;99.90;;;;;;5118854;27;20192;-81
2023/01/19 10:49:30;;;;;;;5.77;5.17;;;1.50;99.90;;;;;;5119540;28;20187;-81
2023/01/19 10:51:57;;;;;;;5.37;3.63;;;2.00;99.90;;;;;;5116769;28;20170;-80
2023/01/19 10:54:25;;;;;;;6.17;4.83;;;2.70;99.90;;;;;;5119683;28;20175;-82
2023/01/19 10:56:55;;;;;;;14.83;9.40;;;2.40;99.90;;;;;;5118125;28;20203;-81
2023/01/19 10:59:49;;;;;;;4.90;4.13;;;2.50;99.90;;;;;;5120527;28;20188;-81
2023/01/19 11:02:25;;;;;;;4.17;3.57;;;2.70;99.90;;;;;;5116493;28;20184;-81
2023/01/19 11:04:53;;;;;;;5.73;3.90;;;2.90;99.90;;;;;;5119564;28;20187;-82
2023/01/19 11:07:29;;;;;;;4.23;2.90;;;2.80;99.90;;;;;;5119829;28;20213;-82
2023/01/19 11:10:16;;;;;;;4.83;4.03;;;2.60;99.90;;;;;;5121325;28;20186;-82
2023/01/19 11:12:46;;;;;;;5.10;3.50;;;3.00;99.90;;;;;;5120530;28;20151;-81
2023/01/19 11:15:15;;;;;;;5.83;3.83;;;3.10;99.90;;;;;;5120338;28;20181;-81
2023/01/19 11:17:44;;;;;;;14.90;9.43;;;2.90;99.90;;;;;;5117750;28;20206;-81
2023/01/19 11:20:19;;;;;;;7.83;5.87;;;2.90;99.90;;;;;;5119246;28;20195;-81
2023/01/19 11:22:44;;;;;;;6.43;4.10;;;3.40;99.90;;;;;;5118839;28;20487;-79
2023/01/19 11:25:29;;;;;;;5.43;4.20;;;3.20;98.80;;;;;;5118757;28;20182;-80
2023/01/19 11:27:55;;;;;;;18.13;10.23;;;2.90;99.90;;;;;;5119325;28;20703;-81
2023/01/19 11:30:25;;;;;;;7.87;6.50;;;3.10;99.90;;;;;;5126920;28;20195;-81
2023/01/19 11:32:51;;;;;;;8.27;6.87;;;3.30;99.90;;;;;;5131012;28;20171;-81
2023/01/19 11:35:39;;;;;;;4.00;3.60;;;3.30;98.40;;;;;;5128860;27;20168;-81
2023/01/19 11:38:11;;;;;;;5.40;4.43;;;2.80;98.30;;;;;;5118478;28;20259;-81
2023/01/19 11:40:37;;;;;;;7.47;5.27;;;2.40;99.30;;;;;;5120576;28;20652;-81
2023/01/19 11:43:03;;;;;;;5.80;3.87;;;2.00;99.90;;;;;;5120265;28;20178;-81
2023/01/19 11:45:31;;;;;;;4.93;4.00;;;1.60;99.90;;;;;;5119728;28;20179;-80
2023/01/19 11:48:01;;;;;;;4.43;3.93;;;1.40;99.90;;;;;;5117731;28;20286;-81
2023/01/19 11:50:30;;;;;;;5.30;3.90;;;1.20;99.90;;;;;;5120653;28;20250;-82
2023/01/19 11:53:29;;;;;;;6.67;4.50;;;0.60;99.90;;;;;;5119369;28;20180;-81
2023/01/19 11:56:14;;;;;;;5.23;4.53;;;0.50;99.90;;;;;;5120483;28;20222;-81
2023/01/19 11:58:45;;;;;;;7.13;4.47;;;0.60;99.90;;;;;;5118650;28;20646;-80
2023/01/19 12:01:23;;;;;;;5.33;4.00;;;0.60;99.90;;;;;;5117443;28;20640;-80
2023/01/19 12:04:00;;;;;;;6.80;5.03;;;0.40;99.90;;;;;;5119536;28;20196;-80
2023/01/19 12:06:36;;;;;;;33.03;11.37;;;0.40;99.90;;;;;;5116471;28;20252;-80
2023/01/19 12:09:23;;;;;;;34.73;14.07;;;0.20;99.90;;;;;;5118695;28;20193;-82
2023/01/19 12:11:56;;;;;;;9.80;6.73;;;0.10;99.90;;;;;;5117226;28;20207;-81
2023/01/19 12:14:42;;;;;;;12.00;8.10;;;0.20;99.90;;;;;;5117857;28;20164;-81
2023/01/19 12:17:16;;;;;;;8.73;7.30;;;0.30;99.90;;;;;;5116424;28;20535;-80
2023/01/19 12:19:53;;;;;;;7.77;5.60;;;0.40;99.90;;;;;;5120895;28;20209;-81
2023/01/19 12:22:20;;;;;;;7.57;5.83;;;0.20;99.90;;;;;;5115953;28;20413;-81
2023/01/19 12:24:52;;;;;;;9.30;6.43;;;0.20;99.90;;;;;;5117425;28;20420;-81
2023/01/19 12:27:35;;;;;;;8.40;5.93;;;0.20;99.90;;;;;;5118470;28;20661;-82
2023/01/19 12:30:01;;;;;;;7.60;6.10;;;0.10;99.90;;;;;;5117199;28;20436;-81
2023/01/19 12:32:35;;;;;;;11.33;5.83;;;0.10;99.90;;;;;;5118939;28;20424;-81
2023/01/19 12:35:01;;;;;;;8.20;6.10;;;-0.10;99.90;;;;;;5115801;28;20171;-81
2023/01/19 12:37:29;;;;;;;11.60;7.00;;;-0.20;99.90;;;;;;5114528;28;20418;-80
2023/01/19 12:39:59;;;;;;;9.70;6.27;;;-0.20;99.90;;;;;;5119348;28;20441;-81
2023/01/19 12:42:25;;;;;;;10.20;5.73;;;0.10;99.90;;;;;;5121327;28;20416;-81
2023/01/19 12:45:19;;;;;;;7.43;6.20;;;0.10;99.90;;;;;;5120382;28;20413;-80
2023/01/19 12:47:55;;;;;;;9.63;6.93;;;0.10;99.90;;;;;;5119813;28;20529;-81
2023/01/19 12:50:24;;;;;;;9.40;6.23;;;0.00;99.90;;;;;;5119158;28;20531;-81
2023/01/19 12:52:57;;;;;;;8.67;6.03;;;0.20;99.90;;;;;;5119248;28;20199;-81
2023/01/19 12:55:32;;;;;;;9.57;6.43;;;0.20;99.90;;;;;;5117924;28;20420;-81
2023/01/19 12:58:02;;;;;;;7.87;5.53;;;0.20;99.90;;;;;;5118906;28;20760;-80
2023/01/19 13:00:42;;;;;;;6.73;4.93;;;0.20;99.90;;;;;;5119899;28;20437;-80
2023/01/19 13:03:17;;;;;;;9.00;5.80;;;0.00;99.90;;;;;;5121889;28;20923;-81
2023/01/19 13:05:42;;;;;;;8.43;5.33;;;-0.10;99.90;;;;;;5120552;28;20792;-81
2023/01/19 13:08:08;;;;;;;6.07;5.47;;;-0.10;99.90;;;;;;5121264;28;20448;-81
2023/01/19 13:10:58;;;;;;;18.17;9.30;;;-0.10;99.90;;;;;;5119496;28;20195;-81
2023/01/19 13:13:39;;;;;;;14.67;7.73;;;-0.20;99.90;;;;;;5121175;28;20237;-81
2023/01/19 13:16:20;;;;;;;16.03;8.07;;;-0.30;99.90;;;;;;5127591;28;20416;-80
2023/01/19 13:18:47;;;;;;;20.40;10.53;;;-0.30;99.90;;;;;;5139745;28;20404;-81
2023/01/19 13:21:25;;;;;;;12.60;7.33;;;-0.20;99.90;;;;;;5140350;28;20397;-81
2023/01/19 13:23:56;;;;;;;14.33;9.03;;;-0.20;99.90;;;;;;5138733;28;20463;-79
2023/01/19 13:26:25;;;;;;;9.87;6.63;;;-0.10;99.90;;;;;;5137034;28;20409;-79
2023/01/19 13:29:01;;;;;;;9.97;7.63;;;0.00;99.90;;;;;;5138069;28;20420;-80
2023/01/19 13:31:34;;;;;;;12.17;8.07;;;0.00;99.90;;;;;;5136652;28;20443;-80
2023/01/19 13:34:01;;;;;;;7.73;5.40;;;0.10;99.90;;;;;;5139146;27;20401;-81
2023/01/19 13:36:49;;;;;;;9.93;6.53;;;0.00;99.90;;;;;;5127897;28;20413;-81
2023/01/19 13:39:21;;;;;;;10.20;7.07;;;-0.20;99.90;;;;;;5138317;28;20429;-80
2023/01/19 13:41:48;;;;;;;22.43;10.70;;;-0.10;99.90;;;;;;5138143;28;20421;-81
2023/01/19 13:44:20;;;;;;;12.80;4.57;;;-0.10;99.90;;;;;;5138370;28;20461;-79
2023/01/19 13:46:47;;;;;;;7.93;5.80;;;-0.10;99.90;;;;;;5138588;28;20437;-81
2023/01/19 13:49:27;;;;;;;7.43;5.20;;;-0.40;99.90;;;;;;5138447;28;20997;-80
2023/01/19 13:52:27;;;;;;;13.73;8.40;;;-0.50;99.90;;;;;;5130250;28;20423;-81
2023/01/19 13:54:58;;;;;;;11.27;7.53;;;-0.50;99.90;;;;;;5103028;28;20452;-81
2023/01/19 13:57:38;;;;;;;11.33;5.97;;;-0.40;99.90;;;;;;5122441;28;20432;-80
2023/01/19 14:00:10;;;;;;;12.40;7.80;;;-0.20;99.90;;;;;;5127847;28;20430;-81
2023/01/19 14:02:49;;;;;;;12.90;6.07;;;-0.20;99.90;;;;;;5134852;28;20420;-80
2023/01/19 14:05:24;;;;;;;14.67;6.87;;;-0.30;99.90;;;;;;5137014;28;20402;-80
2023/01/19 14:08:16;;;;;;;21.20;8.87;;;-0.40;99.90;;;;;;5136304;28;20522;-79
2023/01/19 14:11:01;;;;;;;8.00;4.80;;;-0.50;99.90;;;;;;5125631;28;20481;-81
2023/01/19 14:13:32;;;;;;;4.07;3.33;;;-0.50;99.90;;;;;;5122290;28;20388;-80
2023/01/19 14:16:04;;;;;;;6.43;4.13;;;-0.50;99.90;;;;;;5121699;28;20398;-80
2023/01/19 14:18:31;;;;;;;5.77;4.50;;;-0.60;99.90;;;;;;5118529;28;20766;-80
2023/01/19 14:21:10;;;;;;;4.40;3.83;;;-0.60;99.90;;;;;;5121562;28;20461;-82
2023/01/19 14:23:51;;;;;;;4.57;3.53;;;-0.70;99.90;;;;;;5121976;28;20394;-79
2023/01/19 14:26:45;;;;;;;5.47;3.77;;;-0.70;99.90;;;;;;5122377;28;20417;-80
2023/01/19 14:29:29;;;;;;;6.17;4.20;;;-0.70;99.90;;;;;;5122667;28;20430;-80
2023/01/19 14:32:04;;;;;;;4.97;3.70;;;-0.60;99.90;;;;;;5120990;28;20432;-81
2023/01/19 14:34:40;;;;;;;5.23;3.30;;;-0.80;99.90;;;;;;5121029;28;20408;-79
2023/01/19 14:37:25;;;;;;;5.37;3.67;;;-0.90;99.90;;;;;;5124721;28;20412;-80
2023/01/19 14:40:12;;;;;;;6.17;3.47;;;-0.80;99.90;;;;;;5121667;28;20440;-81
2023/01/19 14:42:54;;;;;;;5.37;3.77;;;-0.80;99.90;;;;;;5121597;28;20412;-80
2023/01/19 14:45:29;;;;;;;4.37;3.27;;;-0.90;99.90;;;;;;5120955;28;20409;-79
2023/01/19 14:48:28;;;;;;;3.67;3.27;;;-0.80;99.90;;;;;;5120937;28;20433;-81
2023/01/19 14:51:01;;;;;;;8.40;4.43;;;-0.90;99.90;;;;;;5109483;28;20433;-80
2023/01/19 14:53:28;;;;;;;5.47;4.30;;;-0.90;99.90;;;;;;5119000;28;20406;-79
2023/01/19 14:56:00;;;;;;;7.80;3.40;;;-0.90;99.90;;;;;;5121643;28;20409;-81
2023/01/19 14:58:30;;;;;;;5.20;3.70;;;-0.90;99.90;;;;;;5120770;28;20480;-80
2023/01/19 15:00:56;;;;;;;14.30;5.80;;;-0.90;99.90;;;;;;5120427;28;20437;-81
2023/01/19 15:03:26;;;;;;;6.63;3.43;;;-0.90;99.90;;;;;;5121044;28;20418;-80
2023/01/19 15:05:54;;;;;;;10.03;6.27;;;-0.90;99.90;;;;;;5121976;28;20250;-80
2023/01/19 15:08:32;;;;;;;6.87;3.20;;;-0.90;99.90;;;;;;5121996;28;20449;-80
2023/01/19 15:11:05;;;;;;;5.40;3.57;;;-1.00;99.90;;;;;;5122409;28;20413;-80
2023/01/19 15:13:31;;;;;;;6.37;3.30;;;-1.00;99.90;;;;;;5121597;28;20393;-80
2023/01/19 15:15:57;;;;;;;7.47;3.80;;;-1.00;99.90;;;;;;5120453;28;20410;-80
2023/01/19 15:18:25;;;;;;;6.33;3.87;;;-1.20;99.90;;;;;;5121910;28;20172;-81
2023/01/19 15:20:53;;;;;;;6.20;4.07;;;-1.10;99.90;;;;;;5122089;28;20425;-80
2023/01/19 15:23:19;;;;;;;5.70;3.30;;;-1.10;99.90;;;;;;5122023;28;20941;-81
